createdAt,value
2022-11-28T00:04:09.718Z,19.55
2022-11-28T00:09:31.493Z,19.50
2022-11-28T00:14:53.184Z,19.48
2022-11-28T00:20:14.926Z,19.45
2022-11-28T00:25:39.352Z,19.44
2022-11-28T00:31:01.373Z,19.40
2022-11-28T00:36:23.642Z,19.38
2022-11-28T00:41:45.731Z,19.35
2022-11-28T00:47:07.439Z,19.31
2022-11-28T00:52:29.189Z,19.30
2022-11-28T00:57:50.901Z,19.28
2022-11-28T01:03:12.560Z,19.26
2022-11-28T01:08:34.519Z,19.24
2022-11-28T01:13:58.375Z,19.20
2022-11-28T01:19:20.526Z,19.18
2022-11-28T01:24:42.415Z,19.16
2022-11-28T01:30:05.854Z,19.14
2022-11-28T01:35:27.916Z,19.13
2022-11-28T01:40:50.076Z,19.13
2022-11-28T01:46:11.944Z,19.10
2022-11-28T01:51:34.355Z,19.07
2022-11-28T01:57:00.830Z,19.06
2022-11-28T02:02:30.584Z,19.05
2022-11-28T02:07:52.948Z,19.01
2022-11-28T02:13:37.489Z,19.02
2022-11-28T02:19:27.353Z,18.99
2022-11-28T02:25:16.828Z,18.95
2022-11-28T02:31:02.824Z,18.95
2022-11-28T02:36:52.906Z,18.92
2022-11-28T02:42:30.318Z,18.91
2022-11-28T02:48:02.887Z,18.90
2022-11-28T02:53:27.954Z,18.89
2022-11-28T02:58:49.762Z,18.86
2022-11-28T03:04:52.754Z,18.88
2022-11-28T03:10:37.409Z,18.86
2022-11-28T03:16:22.058Z,18.82
2022-11-28T03:22:05.389Z,18.82
2022-11-28T03:27:36.138Z,18.81
2022-11-28T03:33:01.024Z,18.80
2022-11-28T03:38:29.524Z,18.79
2022-11-28T03:43:56.614Z,18.78
2022-11-28T03:49:25.949Z,18.78
2022-11-28T03:54:53.510Z,18.75
2022-11-28T04:00:16.153Z,18.74
2022-11-28T04:06:20.392Z,18.72
2022-11-28T04:11:49.710Z,18.72
2022-11-28T04:17:19.131Z,18.71
2022-11-28T04:22:49.120Z,18.70
2022-11-28T04:28:19.051Z,18.70
2022-11-28T04:33:44.328Z,18.67
2022-11-28T04:39:11.696Z,18.69
2022-11-28T04:44:48.593Z,18.68
2022-11-28T04:50:10.847Z,18.66
2022-11-28T04:55:43.034Z,18.64
2022-11-28T05:01:08.217Z,18.64
2022-11-28T05:06:33.019Z,18.63
2022-11-28T05:11:54.709Z,18.63
2022-11-28T05:17:16.397Z,18.62
2022-11-28T05:22:38.110Z,18.61
2022-11-28T05:27:59.796Z,18.60
2022-11-28T05:33:21.490Z,18.59
2022-11-28T05:38:44.121Z,18.58
2022-11-28T05:44:05.922Z,18.60
2022-11-28T05:49:28.982Z,18.59
2022-11-28T05:54:51.140Z,18.58
2022-11-28T06:00:14.573Z,18.57
2022-11-28T06:05:43.820Z,18.55
2022-11-28T06:11:06.611Z,18.55
2022-11-28T06:16:29.869Z,18.56
2022-11-28T06:21:51.664Z,18.55
2022-11-28T06:27:13.327Z,18.55
2022-11-28T06:32:35.087Z,18.54
2022-11-28T06:37:56.736Z,18.54
2022-11-28T06:43:18.406Z,18.54
2022-11-28T06:48:40.395Z,18.54
2022-11-28T06:54:02.148Z,18.54
2022-11-28T06:59:23.826Z,18.52
2022-11-28T07:04:45.543Z,18.51
2022-11-28T07:10:07.933Z,18.51
2022-11-28T07:15:29.645Z,18.51
2022-11-28T07:20:51.385Z,18.50
2022-11-28T07:26:14.840Z,18.47
2022-11-28T07:31:37.247Z,18.46
2022-11-28T07:36:58.960Z,18.46
2022-11-28T07:42:20.596Z,18.44
2022-11-28T07:47:42.319Z,18.43
2022-11-28T07:53:07.196Z,18.41
2022-11-28T07:58:29.131Z,18.43
2022-11-28T08:03:52.527Z,18.62
2022-11-28T08:09:14.299Z,18.93
2022-11-28T08:14:36.013Z,19.18
2022-11-28T08:19:57.789Z,19.37
2022-11-28T08:25:19.423Z,19.44
2022-11-28T08:30:41.449Z,19.44
2022-11-28T08:36:08.298Z,19.43
2022-11-28T08:41:30.001Z,19.42
2022-11-28T08:46:51.896Z,19.40
2022-11-28T08:52:13.557Z,19.36
2022-11-28T08:57:35.262Z,19.30
2022-11-28T09:02:57.001Z,19.27
2022-11-28T09:08:20.415Z,19.25
2022-11-28T09:13:42.171Z,19.22
2022-11-28T09:19:04.319Z,19.19
2022-11-28T09:24:26.052Z,19.16
2022-11-28T09:29:47.748Z,19.20
2022-11-28T09:35:09.578Z,19.26
2022-11-28T09:40:44.806Z,19.34
2022-11-28T09:46:13.494Z,19.40
2022-11-28T09:51:45.221Z,19.46
2022-11-28T09:57:18.899Z,19.51
2022-11-28T10:03:01.712Z,19.56
2022-11-28T10:08:31.836Z,19.60
2022-11-28T10:14:08.851Z,19.66
2022-11-28T10:19:53.710Z,19.74
2022-11-28T10:25:24.939Z,19.77
2022-11-28T10:30:52.303Z,19.78
2022-11-28T10:36:46.297Z,19.74
2022-11-28T10:42:18.792Z,19.74
2022-11-28T10:48:37.945Z,19.70
2022-11-28T10:54:02.000Z,19.67
2022-11-28T10:59:36.690Z,19.65
2022-11-28T11:04:58.475Z,19.62
2022-11-28T11:10:29.667Z,19.59
2022-11-28T11:16:02.944Z,19.54
2022-11-28T11:21:26.933Z,19.48
2022-11-28T11:26:49.798Z,19.42
2022-11-28T11:32:26.900Z,19.40
2022-11-28T11:37:48.636Z,19.33
2022-11-28T11:43:36.798Z,19.33
2022-11-28T11:48:58.444Z,19.32
2022-11-28T11:54:20.306Z,19.33
2022-11-28T11:59:50.732Z,19.35
2022-11-28T12:05:46.618Z,19.38
2022-11-28T12:11:13.649Z,19.34
2022-11-28T12:17:46.705Z,19.32
2022-11-28T12:22:58.446Z,19.27
2022-11-28T12:28:49.322Z,19.23
2022-11-28T12:34:52.353Z,19.22
2022-11-28T12:40:26.101Z,19.16
2022-11-28T12:46:04.667Z,19.15
2022-11-28T12:51:36.127Z,19.20
2022-11-28T12:57:18.120Z,19.43
2022-11-28T13:03:10.669Z,19.84
2022-11-28T13:08:49.359Z,20.34
2022-11-28T13:14:30.472Z,20.79
2022-11-28T13:20:29.051Z,21.15
2022-11-28T13:26:03.405Z,21.38
2022-11-28T13:31:40.087Z,21.42
2022-11-28T13:43:13.127Z,21.21
2022-11-28T13:49:13.117Z,21.06
2022-11-28T13:54:19.968Z,20.94
2022-11-28T13:59:48.950Z,20.81
2022-11-28T14:05:37.368Z,20.67
2022-11-28T14:11:24.097Z,20.49
2022-11-28T14:17:16.652Z,20.32
2022-11-28T14:23:12.168Z,20.18
2022-11-28T14:28:37.902Z,20.07
2022-11-28T14:34:11.016Z,20.01
2022-11-28T14:39:35.045Z,19.93
2022-11-28T14:45:07.984Z,19.87
2022-11-28T14:50:30.085Z,19.84
2022-11-28T14:55:52.018Z,19.85
2022-11-28T15:01:20.803Z,19.85
2022-11-28T15:06:43.652Z,19.82
2022-11-28T15:12:24.215Z,19.83
2022-11-28T15:17:49.556Z,19.83
2022-11-28T15:23:30.658Z,19.81
2022-11-28T15:29:27.183Z,19.81
2022-11-28T15:35:00.137Z,19.80
2022-11-28T15:40:40.413Z,19.78
2022-11-28T15:46:02.765Z,19.75
2022-11-28T15:51:28.866Z,19.75
2022-11-28T15:56:57.556Z,19.73
2022-11-28T16:02:40.968Z,19.69
2022-11-28T16:08:02.782Z,19.65
2022-11-28T16:13:25.149Z,19.63
2022-11-28T16:18:53.809Z,19.59
2022-11-28T16:24:35.295Z,19.57
2022-11-28T16:29:57.470Z,19.52
2022-11-28T16:35:33.978Z,19.57
2022-11-28T16:41:01.773Z,19.71
2022-11-28T16:46:25.865Z,19.87
2022-11-28T16:51:48.043Z,20.04
2022-11-28T16:57:17.417Z,20.14
2022-11-28T17:02:39.142Z,20.18
2022-11-28T17:08:01.865Z,20.14
2022-11-28T17:13:23.582Z,20.09
2022-11-28T17:18:46.221Z,20.03
2022-11-28T17:24:29.586Z,19.95
2022-11-28T17:29:51.338Z,19.86
2022-11-28T17:35:16.977Z,19.81
2022-11-28T17:40:42.226Z,19.77
2022-11-28T17:46:03.982Z,19.75
2022-11-28T17:51:26.362Z,19.87
2022-11-28T17:56:49.676Z,20.18
2022-11-28T18:02:11.439Z,20.70
2022-11-28T18:07:33.269Z,21.17
2022-11-28T18:12:56.036Z,21.47
2022-11-28T18:18:17.770Z,21.65
2022-11-28T18:23:46.228Z,21.75
2022-11-28T18:29:07.938Z,21.79
2022-11-28T18:34:29.650Z,21.81
2022-11-28T18:39:51.330Z,21.78
2022-11-28T18:45:13.104Z,21.69
2022-11-28T18:50:35.228Z,21.57
2022-11-28T18:56:02.302Z,21.44
2022-11-28T19:01:30.800Z,21.30
2022-11-28T19:06:52.834Z,21.16
2022-11-28T19:12:14.595Z,21.06
2022-11-28T19:17:36.285Z,21.02
2022-11-28T19:22:57.975Z,21.03
2022-11-28T19:28:19.643Z,21.11
2022-11-28T19:33:42.220Z,21.18
2022-11-28T19:39:04.846Z,21.25
2022-11-28T19:44:29.141Z,21.32
2022-11-28T19:49:50.778Z,21.35
2022-11-28T19:55:12.671Z,21.36
2022-11-28T20:00:34.295Z,21.35
2022-11-28T20:05:56.254Z,21.30
2022-11-28T20:11:22.278Z,21.24
2022-11-28T20:16:45.045Z,21.12
2022-11-28T20:22:07.834Z,20.96
2022-11-28T20:27:29.518Z,20.87
2022-11-28T20:32:51.166Z,20.81
2022-11-28T20:38:12.813Z,20.77
2022-11-28T20:43:37.102Z,20.73
2022-11-28T20:49:02.005Z,20.70
2022-11-28T20:54:25.706Z,20.69
2022-11-28T20:59:47.527Z,20.88
2022-11-28T21:05:09.365Z,21.23
2022-11-28T21:10:33.081Z,21.55
2022-11-28T21:15:54.762Z,21.70
2022-11-28T21:21:22.787Z,21.70
2022-11-28T21:26:51.337Z,21.62
2022-11-28T21:32:16.340Z,21.51
2022-11-28T21:37:37.978Z,21.42
2022-11-28T21:42:59.736Z,21.31
2022-11-28T21:48:21.458Z,21.18
2022-11-28T21:53:43.147Z,21.08
2022-11-28T21:59:04.994Z,20.97
2022-11-28T22:04:26.649Z,20.86
2022-11-28T22:09:48.455Z,20.76
2022-11-28T22:15:10.661Z,20.68
2022-11-28T22:20:32.324Z,20.59
2022-11-28T22:25:54.152Z,20.51
2022-11-28T22:31:17.934Z,20.47
2022-11-28T22:36:39.898Z,20.41
2022-11-28T22:42:01.590Z,20.36
2022-11-28T22:47:23.247Z,20.29
2022-11-28T22:52:44.906Z,20.21
2022-11-28T22:58:06.711Z,20.18
2022-11-28T23:03:28.485Z,20.13
2022-11-28T23:08:51.879Z,20.09
2022-11-28T23:14:14.285Z,20.05
2022-11-28T23:19:36.172Z,20.01
2022-11-28T23:24:57.928Z,19.96
2022-11-28T23:30:19.663Z,19.93
2022-11-28T23:35:41.293Z,19.90
2022-11-28T23:41:02.928Z,19.87
2022-11-28T23:46:26.274Z,19.84
2022-11-28T23:51:48.078Z,19.81
2022-11-28T23:57:09.802Z,19.77
